Time;durP1;ratioP1;P1;durP2;ratioP2;P2;SDS_P1;SDS_P2;PMS_P1;PMS_P2;Temp;Humidity;BMP_temperature;BMP_pressure;BME280_temperature;BME280_humidity;BME280_pressure;Samples;Min_cycle;Max_cycle;Signal;HPM_P1;HPM_P2
2022/10/10 00:00:51;;;;;;;4.90;1.52;;;;;;;;;;4927501;28;20130;-78
2022/10/10 00:03:18;;;;;;;4.25;1.50;;;;;;;;;;4934523;28;20086;-79
2022/10/10 00:05:43;;;;;;;5.05;1.42;;;;;;;;;;4944118;28;20038;-78
2022/10/10 00:08:09;;;;;;;3.85;1.77;;;;;;;;;;4923617;28;20031;-77
2022/10/10 00:10:34;;;;;;;3.75;1.60;;;;;;;;;;4938472;28;20304;-78
2022/10/10 00:13:00;;;;;;;3.97;1.58;;;;;;;;;;4938255;28;20045;-78
2022/10/10 00:15:25;;;;;;;4.10;1.20;;;;;;;;;;4940806;28;20086;-78
2022/10/10 00:17:51;;;;;;;3.42;1.52;;;;;;;;;;4929698;28;20229;-78
2022/10/10 00:20:19;;;;;;;3.97;1.35;;;;;;;;;;4926309;28;20509;-76
2022/10/10 00:22:45;;;;;;;3.88;1.63;;;;;;;;;;4930038;28;20545;-79
2022/10/10 00:25:10;;;;;;;3.65;1.50;;;;;;;;;;4931633;28;20035;-78
2022/10/10 00:27:36;;;;;;;4.57;1.77;;;;;;;;;;4934896;28;20046;-78
2022/10/10 00:30:03;;;;;;;6.63;1.90;;;;;;;;;;4930506;28;20494;-77
2022/10/10 00:32:29;;;;;;;5.67;2.00;;;;;;;;;;4926590;28;20042;-78
2022/10/10 00:34:54;;;;;;;5.50;1.65;;;;;;;;;;4940589;28;20027;-77
2022/10/10 00:37:19;;;;;;;4.78;1.88;;;;;;;;;;4942927;28;20087;-77
2022/10/10 00:39:47;;;;;;;3.40;1.60;;;;;;;;;;4941742;28;20839;-78
2022/10/10 00:42:15;;;;;;;3.00;1.30;;;;;;;;;;4930501;28;20050;-77
2022/10/10 00:44:45;;;;;;;3.97;1.70;;;;;;;;;;4943243;28;20096;-77
2022/10/10 00:47:11;;;;;;;5.75;1.77;;;;;;;;;;4929756;28;20494;-77
2022/10/10 00:49:40;;;;;;;3.45;1.40;;;;;;;;;;4935110;28;20050;-77
2022/10/10 00:52:08;;;;;;;5.07;1.85;;;;;;;;;;4944338;28;20067;-77
2022/10/10 00:54:35;;;;;;;3.33;1.40;;;;;;;;;;4928267;28;20042;-77
2022/10/10 00:57:12;;;;;;;4.75;1.60;;;;;;;;;;4941030;28;20027;-78
2022/10/10 00:59:40;;;;;;;3.95;1.75;;;;;;;;;;4940611;28;20027;-77
2022/10/10 01:02:05;;;;;;;5.82;1.75;;;;;;;;;;4924509;28;20058;-78
2022/10/10 01:04:34;;;;;;;3.10;1.52;;;;;;;;;;4940553;28;20082;-79
2022/10/10 01:07:03;;;;;;;7.03;2.08;;;;;;;;;;4928934;28;20406;-77
2022/10/10 01:09:30;;;;;;;3.60;1.58;;;;;;;;;;4925889;28;20394;-77
2022/10/10 01:12:03;;;;;;;4.13;1.73;;;;;;;;;;4925503;28;20506;-77
2022/10/10 01:14:50;;;;;;;5.03;1.88;;;;;;;;;;4940219;28;20038;-77
2022/10/10 01:17:24;;;;;;;3.92;1.35;;;;;;;;;;4931610;28;20383;-78
2022/10/10 01:20:08;;;;;;;3.67;1.60;;;;;;;;;;4925102;28;20506;-78
2022/10/10 01:22:37;;;;;;;5.07;1.90;;;;;;;;;;4938459;28;20062;-79
2022/10/10 01:25:21;;;;;;;4.40;1.60;;;;;;;;;;4933168;28;20483;-78
2022/10/10 01:27:51;;;;;;;3.25;1.50;;;;;;;;;;4926403;28;20579;-78
2022/10/10 01:30:20;;;;;;;5.00;1.75;;;;;;;;;;4942048;28;20086;-78
2022/10/10 01:33:14;;;;;;;4.90;1.50;;;;;;;;;;4924625;28;21074;-77
2022/10/10 01:35:50;;;;;;;4.45;1.70;;;;;;;;;;4933527;28;20375;-77
2022/10/10 01:38:15;;;;;;;4.20;1.50;;;;;;;;;;4955696;28;20039;-77
2022/10/10 01:40:48;;;;;;;5.28;1.88;;;;;;;;;;4956692;28;20093;-77
2022/10/10 01:43:14;;;;;;;4.47;1.95;;;;;;;;;;4939074;28;20933;-77
2022/10/10 01:45:50;;;;;;;3.35;1.55;;;;;;;;;;4932404;28;20038;-77
2022/10/10 01:48:19;;;;;;;6.40;2.00;;;;;;;;;;4923646;28;20035;-77
2022/10/10 01:50:55;;;;;;;4.68;1.70;;;;;;;;;;4925023;28;20074;-78
2022/10/10 01:53:29;;;;;;;3.80;1.50;;;;;;;;;;4954017;28;20945;-77
2022/10/10 01:56:06;;;;;;;4.47;1.60;;;;;;;;;;4925783;28;20421;-77
2022/10/10 01:58:50;;;;;;;3.30;1.40;;;;;;;;;;4927763;28;20031;-77
2022/10/10 02:01:45;;;;;;;5.47;1.90;;;;;;;;;;4925561;28;20093;-78
2022/10/10 02:04:25;;;;;;;3.88;1.70;;;;;;;;;;4922020;28;20410;-78
2022/10/10 02:06:58;;;;;;;3.90;1.52;;;;;;;;;;4956715;28;20068;-77
2022/10/10 02:09:30;;;;;;;4.63;1.60;;;;;;;;;;4933853;28;20511;-77
2022/10/10 02:11:57;;;;;;;5.00;1.80;;;;;;;;;;4923997;28;20038;-77
2022/10/10 02:14:29;;;;;;;4.53;1.70;;;;;;;;;;4930961;28;20043;-77
2022/10/10 02:16:57;;;;;;;3.65;1.65;;;;;;;;;;4937121;28;20635;-77
2022/10/10 02:19:23;;;;;;;4.93;1.90;;;;;;;;;;4940080;28;20433;-78
2022/10/10 02:21:50;;;;;;;6.95;2.15;;;;;;;;;;4922759;28;20514;-78
2022/10/10 02:24:17;;;;;;;4.90;1.60;;;;;;;;;;4931609;28;20028;-78
2022/10/10 02:26:46;;;;;;;6.95;1.90;;;;;;;;;;4938788;28;20178;-79
2022/10/10 02:29:16;;;;;;;5.05;1.67;;;;;;;;;;4931387;28;20035;-77
2022/10/10 02:31:44;;;;;;;3.97;1.60;;;;;;;;;;4940569;28;20410;-77
2022/10/10 02:34:13;;;;;;;3.95;1.30;;;;;;;;;;4947676;28;20067;-77
2022/10/10 02:36:40;;;;;;;4.70;1.73;;;;;;;;;;4923510;28;20384;-77
2022/10/10 02:39:06;;;;;;;5.63;1.90;;;;;;;;;;4940283;28;20058;-78
2022/10/10 02:41:33;;;;;;;5.72;1.92;;;;;;;;;;4922170;28;20487;-78
2022/10/10 02:43:58;;;;;;;5.82;1.80;;;;;;;;;;4939363;28;20130;-78
2022/10/10 02:46:23;;;;;;;3.20;1.30;;;;;;;;;;4936590;28;20530;-77
2022/10/10 02:48:49;;;;;;;5.10;1.73;;;;;;;;;;4929720;28;20475;-79
2022/10/10 02:51:15;;;;;;;3.83;1.80;;;;;;;;;;4921561;28;20035;-78
2022/10/10 02:53:40;;;;;;;4.05;1.75;;;;;;;;;;4939639;28;20082;-77
2022/10/10 02:56:05;;;;;;;4.18;1.60;;;;;;;;;;4931553;28;20062;-77
2022/10/10 02:58:31;;;;;;;5.57;1.83;;;;;;;;;;4923236;28;20034;-77
2022/10/10 03:00:56;;;;;;;4.93;1.80;;;;;;;;;;4923735;28;20065;-77
2022/10/10 03:03:22;;;;;;;5.05;1.70;;;;;;;;;;4921236;28;20495;-78
2022/10/10 03:05:48;;;;;;;3.97;1.80;;;;;;;;;;4928757;28;20042;-78
2022/10/10 03:08:13;;;;;;;4.68;1.85;;;;;;;;;;4947440;28;20035;-78
2022/10/10 03:10:39;;;;;;;4.32;1.55;;;;;;;;;;4924614;28;20097;-78
2022/10/10 03:13:04;;;;;;;6.93;1.63;;;;;;;;;;4953960;28;20146;-77
2022/10/10 03:15:32;;;;;;;4.22;1.42;;;;;;;;;;4920022;28;20464;-78
2022/10/10 03:17:57;;;;;;;;;;;;;;;;;;4954996;28;20491;-77
2022/10/10 03:20:23;;;;;;;6.57;1.90;;;;;;;;;;4930669;28;19925;-77
2022/10/10 03:22:48;;;;;;;5.20;1.70;;;;;;;;;;4923934;28;20275;-78
2022/10/10 03:25:13;;;;;;;4.18;1.70;;;;;;;;;;4932615;28;20039;-78
2022/10/10 03:27:39;;;;;;;4.68;1.52;;;;;;;;;;4926376;28;20054;-77
2022/10/10 03:30:04;;;;;;;5.22;2.00;;;;;;;;;;4938049;28;20086;-78
2022/10/10 03:32:33;;;;;;;4.35;1.75;;;;;;;;;;4920168;28;20407;-79
2022/10/10 03:34:58;;;;;;;5.95;2.20;;;;;;;;;;4922388;28;20058;-79
2022/10/10 03:37:24;;;;;;;4.97;1.70;;;;;;;;;;4940197;28;20086;-77
2022/10/10 03:39:49;;;;;;;4.55;1.75;;;;;;;;;;4938466;28;20506;-77
2022/10/10 03:42:14;;;;;;;3.38;1.70;;;;;;;;;;4937341;28;20518;-79
2022/10/10 03:44:40;;;;;;;4.45;1.60;;;;;;;;;;4930470;28;20166;-78
2022/10/10 03:47:05;;;;;;;5.00;1.90;;;;;;;;;;4924874;28;20055;-79
2022/10/10 03:49:30;;;;;;;4.07;1.58;;;;;;;;;;4937182;28;20032;-79
2022/10/10 03:51:56;;;;;;;7.53;1.70;;;;;;;;;;4929521;28;20047;-79
2022/10/10 03:54:21;;;;;;;4.75;1.73;;;;;;;;;;4923477;28;20454;-78
2022/10/10 03:56:46;;;;;;;4.78;1.88;;;;;;;;;;4937857;28;20119;-78
2022/10/10 03:59:12;;;;;;;4.78;1.58;;;;;;;;;;4941936;28;20503;-78
2022/10/10 04:01:37;;;;;;;5.35;1.88;;;;;;;;;;4938437;28;20050;-78
2022/10/10 04:04:04;;;;;;;4.53;1.80;;;;;;;;;;4939534;28;20565;-79
2022/10/10 04:06:29;;;;;;;4.68;1.80;;;;;;;;;;4942962;28;20055;-78
2022/10/10 04:08:54;;;;;;;3.85;1.75;;;;;;;;;;4943577;28;20061;-78
2022/10/10 04:11:20;;;;;;;5.65;1.73;;;;;;;;;;4938200;28;20058;-78
2022/10/10 04:13:47;;;;;;;3.97;1.90;;;;;;;;;;4926102;28;20410;-78
2022/10/10 04:16:12;;;;;;;4.20;1.83;;;;;;;;;;4933565;28;20035;-78
2022/10/10 04:18:37;;;;;;;4.15;1.75;;;;;;;;;;4933808;28;20045;-78
2022/10/10 04:21:04;;;;;;;5.82;1.80;;;;;;;;;;4924242;28;20126;-79
2022/10/10 04:23:29;;;;;;;4.28;1.80;;;;;;;;;;4934637;28;20145;-79
2022/10/10 04:25:55;;;;;;;4.65;1.80;;;;;;;;;;4940705;28;20107;-79
2022/10/10 04:28:20;;;;;;;5.07;2.33;;;;;;;;;;4932287;28;20049;-79
2022/10/10 04:30:46;;;;;;;4.78;2.00;;;;;;;;;;4937166;28;20565;-79
2022/10/10 04:33:11;;;;;;;4.03;2.20;;;;;;;;;;4936508;28;20035;-80
2022/10/10 04:35:37;;;;;;;6.13;2.03;;;;;;;;;;4934565;28;20108;-78
2022/10/10 04:38:04;;;;;;;4.10;1.83;;;;;;;;;;4924623;28;20451;-78
2022/10/10 04:40:29;;;;;;;6.28;2.20;;;;;;;;;;4942293;28;20039;-79
2022/10/10 04:42:55;;;;;;;5.60;1.90;;;;;;;;;;4941954;28;20897;-79
2022/10/10 04:45:21;;;;;;;5.25;1.92;;;;;;;;;;4932152;28;20506;-80
2022/10/10 04:47:48;;;;;;;4.30;2.05;;;;;;;;;;4932879;28;20075;-79
2022/10/10 04:50:13;;;;;;;4.78;2.10;;;;;;;;;;4929058;28;20035;-79
2022/10/10 04:52:39;;;;;;;3.85;2.10;;;;;;;;;;4924614;28;20749;-79
2022/10/10 04:55:04;;;;;;;4.93;1.88;;;;;;;;;;4933650;28;20407;-79
2022/10/10 04:57:30;;;;;;;4.53;2.13;;;;;;;;;;4932736;28;20047;-79
2022/10/10 04:59:55;;;;;;;6.38;2.38;;;;;;;;;;4940499;28;20047;-79
2022/10/10 05:02:20;;;;;;;4.57;1.88;;;;;;;;;;4934967;28;20546;-76
2022/10/10 05:04:46;;;;;;;5.70;2.00;;;;;;;;;;4940709;28;20053;-76
2022/10/10 05:07:11;;;;;;;5.30;1.73;;;;;;;;;;4933000;28;20038;-75
2022/10/10 05:09:37;;;;;;;5.45;2.20;;;;;;;;;;4940921;28;20113;-75
2022/10/10 05:12:02;;;;;;;4.80;2.10;;;;;;;;;;4933007;28;20035;-76
2022/10/10 05:14:28;;;;;;;4.13;2.10;;;;;;;;;;4923413;28;20162;-75
2022/10/10 05:16:53;;;;;;;5.68;2.22;;;;;;;;;;4933046;28;20035;-76
2022/10/10 05:19:18;;;;;;;5.20;2.25;;;;;;;;;;4939865;28;20406;-76
2022/10/10 05:21:44;;;;;;;5.50;2.38;;;;;;;;;;4931751;28;20039;-76
2022/10/10 05:24:09;;;;;;;4.65;1.90;;;;;;;;;;4924620;28;20066;-76
2022/10/10 05:26:34;;;;;;;6.18;2.60;;;;;;;;;;4930062;28;20428;-76
2022/10/10 05:29:00;;;;;;;5.80;2.50;;;;;;;;;;4937183;28;20179;-76
2022/10/10 05:31:26;;;;;;;4.90;2.17;;;;;;;;;;4924375;28;20486;-81
2022/10/10 05:33:51;;;;;;;4.45;2.03;;;;;;;;;;4906022;28;20778;-77
2022/10/10 05:36:17;;;;;;;5.00;2.05;;;;;;;;;;4930510;28;20064;-78
2022/10/10 05:38:42;;;;;;;4.93;2.22;;;;;;;;;;4929841;28;20046;-77
2022/10/10 05:41:08;;;;;;;6.05;2.22;;;;;;;;;;4930338;28;20038;-78
2022/10/10 05:43:34;;;;;;;5.50;2.08;;;;;;;;;;4923249;28;20080;-78
2022/10/10 05:46:00;;;;;;;4.35;2.20;;;;;;;;;;4935527;28;20089;-78
2022/10/10 05:48:25;;;;;;;6.47;2.33;;;;;;;;;;4932461;28;20043;-78
2022/10/10 05:50:53;;;;;;;8.27;2.72;;;;;;;;;;4932185;28;20102;-78
2022/10/10 05:53:19;;;;;;;3.47;1.80;;;;;;;;;;4923818;28;20430;-78
2022/10/10 05:55:44;;;;;;;5.40;2.20;;;;;;;;;;4940201;28;20067;-78
2022/10/10 05:58:12;;;;;;;4.57;2.42;;;;;;;;;;4922966;28;20086;-78
2022/10/10 06:00:38;;;;;;;5.03;2.30;;;;;;;;;;4937756;28;20035;-78
2022/10/10 06:03:04;;;;;;;6.00;2.10;;;;;;;;;;4922827;28;20039;-78
2022/10/10 06:05:29;;;;;;;4.75;2.00;;;;;;;;;;4943857;28;20487;-77
2022/10/10 06:07:54;;;;;;;5.68;2.13;;;;;;;;;;4937687;28;20039;-78
2022/10/10 06:10:20;;;;;;;5.70;2.33;;;;;;;;;;4921810;28;20403;-78
2022/10/10 06:12:45;;;;;;;5.30;2.70;;;;;;;;;;4938665;28;20040;-78
2022/10/10 06:15:12;;;;;;;4.05;1.73;;;;;;;;;;4934316;28;20134;-77
2022/10/10 06:17:37;;;;;;;5.07;2.30;;;;;;;;;;4937117;28;20095;-79
2022/10/10 06:20:03;;;;;;;4.55;1.80;;;;;;;;;;4936247;28;20502;-78
2022/10/10 06:22:28;;;;;;;5.05;1.95;;;;;;;;;;4932283;28;20038;-78
2022/10/10 06:24:53;;;;;;;6.45;1.92;;;;;;;;;;4952709;28;20036;-78
2022/10/10 06:27:19;;;;;;;4.57;2.05;;;;;;;;;;4937645;28;20061;-78
2022/10/10 06:29:44;;;;;;;6.60;2.10;;;;;;;;;;4940407;28;20049;-78
2022/10/10 06:32:09;;;;;;;6.47;2.28;;;;;;;;;;4940777;28;20495;-78
2022/10/10 06:34:35;;;;;;;6.93;2.30;;;;;;;;;;4932067;28;20049;-79
2022/10/10 06:37:00;;;;;;;4.90;2.15;;;;;;;;;;4937639;28;20055;-78
2022/10/10 06:39:25;;;;;;;4.93;2.35;;;;;;;;;;4927084;28;20085;-78
2022/10/10 06:41:51;;;;;;;8.98;2.30;;;;;;;;;;4932064;28;20043;-78
2022/10/10 06:44:16;;;;;;;4.93;2.33;;;;;;;;;;4936790;28;20146;-78
2022/10/10 06:46:42;;;;;;;3.88;2.10;;;;;;;;;;4923827;28;20133;-78
2022/10/10 06:49:07;;;;;;;4.90;2.20;;;;;;;;;;4938740;28;20047;-78
2022/10/10 06:51:32;;;;;;;6.47;2.95;;;;;;;;;;4940189;28;20038;-78
2022/10/10 06:53:58;;;;;;;5.60;2.35;;;;;;;;;;4938899;28;20043;-78
2022/10/10 06:56:24;;;;;;;6.07;2.45;;;;;;;;;;4930649;28;20815;-77
2022/10/10 06:58:50;;;;;;;4.35;2.10;;;;;;;;;;4924202;28;20074;-77
2022/10/10 07:01:18;;;;;;;6.20;2.60;;;;;;;;;;4924728;28;20035;-77
2022/10/10 07:03:43;;;;;;;4.20;2.35;;;;;;;;;;4944396;28;20507;-78
2022/10/10 07:06:09;;;;;;;6.60;2.63;;;;;;;;;;4930307;28;20046;-78
2022/10/10 07:08:36;;;;;;;6.63;2.28;;;;;;;;;;4927119;28;20529;-76
2022/10/10 07:11:01;;;;;;;5.75;1.98;;;;;;;;;;4938066;28;20045;-78
2022/10/10 07:13:27;;;;;;;3.92;2.30;;;;;;;;;;4938128;28;20047;-77
2022/10/10 07:15:52;;;;;;;5.47;1.98;;;;;;;;;;4931010;28;20047;-78
2022/10/10 07:18:18;;;;;;;6.05;2.17;;;;;;;;;;4937697;28;20122;-77
2022/10/10 07:20:43;;;;;;;5.40;2.53;;;;;;;;;;4925650;28;20390;-78
2022/10/10 07:23:09;;;;;;;5.88;2.05;;;;;;;;;;4924935;28;20090;-77
2022/10/10 07:25:38;;;;;;;4.55;2.17;;;;;;;;;;4958288;28;20031;-77
2022/10/10 07:28:03;;;;;;;3.45;2.00;;;;;;;;;;4924552;28;20076;-77
2022/10/10 07:30:29;;;;;;;4.78;2.28;;;;;;;;;;4940455;28;20042;-78
2022/10/10 07:32:54;;;;;;;5.50;2.35;;;;;;;;;;4928982;28;20117;-78
2022/10/10 07:35:21;;;;;;;4.55;2.20;;;;;;;;;;4932859;28;20047;-77
2022/10/10 07:37:46;;;;;;;5.00;2.03;;;;;;;;;;4951301;28;20577;-81
2022/10/10 07:40:12;;;;;;;8.25;2.33;;;;;;;;;;4925331;28;20048;-77
2022/10/10 07:42:37;;;;;;;4.25;2.05;;;;;;;;;;4941814;28;20078;-77
2022/10/10 07:45:04;;;;;;;4.38;1.90;;;;;;;;;;4942542;28;20057;-78
2022/10/10 07:47:29;;;;;;;5.90;1.95;;;;;;;;;;4942252;28;20035;-77
2022/10/10 07:49:54;;;;;;;4.47;1.95;;;;;;;;;;4930916;28;20494;-78
2022/10/10 07:52:20;;;;;;;4.10;1.88;;;;;;;;;;4933837;28;20035;-79
2022/10/10 07:54:45;;;;;;;4.88;2.38;;;;;;;;;;4941620;28;20043;-78
2022/10/10 07:57:10;;;;;;;4.90;2.28;;;;;;;;;;4940693;28;20047;-78
2022/10/10 07:59:36;;;;;;;6.05;2.33;;;;;;;;;;4934044;28;20126;-79
2022/10/10 08:02:02;;;;;;;4.57;2.40;;;;;;;;;;4940637;28;20039;-78
2022/10/10 08:04:27;;;;;;;4.63;2.10;;;;;;;;;;4932638;28;20050;-78
2022/10/10 08:06:52;;;;;;;6.93;3.35;;;;;;;;;;4954291;28;20090;-78
2022/10/10 08:09:17;;;;;;;6.40;2.38;;;;;;;;;;4925170;28;20039;-78
2022/10/10 08:11:43;;;;;;;4.60;1.98;;;;;;;;;;4942400;28;20178;-78
2022/10/10 08:14:08;;;;;;;4.25;1.80;;;;;;;;;;4932628;28;20096;-78
2022/10/10 08:16:37;;;;;;;4.03;1.98;;;;;;;;;;4948405;28;20126;-78
2022/10/10 08:19:03;;;;;;;3.80;1.80;;;;;;;;;;4929142;28;20457;-79
2022/10/10 08:21:28;;;;;;;4.57;1.65;;;;;;;;;;4933990;28;20438;-77
2022/10/10 08:23:54;;;;;;;5.80;2.70;;;;;;;;;;4955987;28;20032;-78
2022/10/10 08:26:20;;;;;;;3.70;1.70;;;;;;;;;;4916470;28;20494;-78
2022/10/10 08:28:46;;;;;;;4.20;1.55;;;;;;;;;;4923649;28;20105;-78
2022/10/10 08:31:15;;;;;;;4.68;1.58;;;;;;;;;;4938045;28;20035;-78
2022/10/10 08:33:41;;;;;;;4.15;1.60;;;;;;;;;;4932168;28;20499;-78
2022/10/10 08:36:09;;;;;;;4.45;1.58;;;;;;;;;;4940559;28;20557;-81
2022/10/10 08:38:35;;;;;;;4.88;1.80;;;;;;;;;;4924236;28;20035;-80
2022/10/10 08:41:06;;;;;;;4.03;1.80;;;;;;;;;;4926297;28;20050;-80
2022/10/10 08:43:40;;;;;;;4.65;1.60;;;;;;;;;;4938977;28;20039;-79
2022/10/10 08:46:35;;;;;;;4.32;1.50;;;;;;;;;;4934563;28;20043;-82
2022/10/10 08:49:11;;;;;;;2.92;1.27;;;;;;;;;;4941472;28;20505;-81
2022/10/10 08:51:38;;;;;;;3.47;1.58;;;;;;;;;;4963265;28;20065;-79
2022/10/10 08:54:05;;;;;;;3.72;1.55;;;;;;;;;;4941889;28;20408;-80
2022/10/10 08:56:32;;;;;;;5.60;1.77;;;;;;;;;;4935807;28;20046;-80
2022/10/10 08:59:04;;;;;;;3.25;1.60;;;;;;;;;;4932490;28;20133;-78
2022/10/10 09:01:34;;;;;;;5.93;1.85;;;;;;;;;;4923407;28;20102;-79
2022/10/10 09:04:00;;;;;;;3.55;1.65;;;;;;;;;;4939374;28;20081;-78
2022/10/10 09:06:53;;;;;;;4.13;1.70;;;;;;;;;;4922382;28;20077;-78
2022/10/10 09:09:34;;;;;;;4.47;1.98;;;;;;;;;;4947027;28;20046;-77
2022/10/10 09:12:25;;;;;;;4.65;1.58;;;;;;;;;;4924989;28;20062;-79
2022/10/10 09:15:24;;;;;;;4.10;1.92;;;;;;;;;;4957691;28;20502;-78
2022/10/10 09:18:05;;;;;;;4.38;1.42;;;;;;;;;;4931739;28;20453;-78
2022/10/10 09:21:22;;;;;;;3.40;1.60;;;;;;;;;;4950227;28;20064;-80
2022/10/10 09:23:52;;;;;;;4.35;1.67;;;;;;;;;;4878448;28;20089;-78
2022/10/10 09:26:29;;;;;;;2.90;1.30;;;;;;;;;;4939566;28;20058;-79
2022/10/10 09:28:59;;;;;;;2.95;1.63;;;;;;;;;;4937214;28;20043;-78
2022/10/10 09:31:33;;;;;;;4.82;1.60;;;;;;;;;;4924134;28;20102;-78
2022/10/10 09:34:18;;;;;;;4.28;1.67;;;;;;;;;;4925678;28;20043;-79
2022/10/10 09:36:44;;;;;;;4.70;1.92;;;;;;;;;;4938793;28;20047;-78
2022/10/10 09:39:23;;;;;;;4.55;1.65;;;;;;;;;;4922008;28;20037;-78
2022/10/10 09:41:58;;;;;;;4.45;1.80;;;;;;;;;;4940827;28;20090;-80
2022/10/10 09:44:24;;;;;;;3.97;1.40;;;;;;;;;;4945867;28;20664;-80
2022/10/10 09:46:49;;;;;;;3.75;1.50;;;;;;;;;;4938380;28;20059;-79
2022/10/10 09:49:16;;;;;;;3.30;1.52;;;;;;;;;;4939775;28;20410;-79
2022/10/10 09:51:43;;;;;;;3.38;1.40;;;;;;;;;;4937859;28;20035;-78
2022/10/10 09:54:09;;;;;;;4.13;1.80;;;;;;;;;;4924080;28;20071;-78
2022/10/10 09:56:40;;;;;;;3.70;1.52;;;;;;;;;;4930144;28;20065;-78
2022/10/10 09:59:38;;;;;;;4.55;1.70;;;;;;;;;;4938108;28;20078;-78
2022/10/10 10:02:10;;;;;;;;;;;;;;;;;;4953930;28;20042;-78
2022/10/10 10:04:36;;;;;;;3.38;1.48;;;;;;;;;;4919783;28;19954;-77
2022/10/10 10:07:16;;;;;;;4.20;1.48;;;;;;;;;;4924715;28;20157;-79
2022/10/10 10:09:46;;;;;;;5.07;1.73;;;;;;;;;;4925347;28;20039;-77
2022/10/10 10:12:11;;;;;;;4.95;1.70;;;;;;;;;;4954517;28;20521;-78
2022/10/10 10:14:37;;;;;;;3.20;1.42;;;;;;;;;;4937794;28;20035;-77
2022/10/10 10:17:08;;;;;;;3.45;1.60;;;;;;;;;;4931450;28;20046;-77
2022/10/10 10:19:38;;;;;;;4.25;1.63;;;;;;;;;;4921872;28;20051;-77
2022/10/10 10:22:04;;;;;;;2.65;1.13;;;;;;;;;;4939867;28;20506;-77
2022/10/10 10:24:37;;;;;;;4.82;1.60;;;;;;;;;;4934864;28;20042;-77
2022/10/10 10:27:15;;;;;;;3.72;1.38;;;;;;;;;;4935049;28;20157;-78
2022/10/10 10:29:46;;;;;;;4.35;1.55;;;;;;;;;;4923043;28;20031;-77
2022/10/10 10:32:32;;;;;;;2.92;1.40;;;;;;;;;;4943132;28;20050;-78
2022/10/10 10:35:25;;;;;;;3.92;1.42;;;;;;;;;;4957350;28;20055;-78
2022/10/10 10:38:06;;;;;;;4.00;1.35;;;;;;;;;;4953608;28;21182;-79
2022/10/10 10:41:09;;;;;;;4.07;1.48;;;;;;;;;;4937438;28;20039;-79
2022/10/10 10:43:47;;;;;;;3.03;1.35;;;;;;;;;;4930281;28;20050;-79
2022/10/10 10:46:23;;;;;;;6.07;1.50;;;;;;;;;;4942012;28;20031;-77
2022/10/10 10:49:01;;;;;;;4.07;1.38;;;;;;;;;;4939055;28;20039;-77
2022/10/10 10:51:48;;;;;;;4.68;1.40;;;;;;;;;;4929791;28;20038;-78
2022/10/10 10:54:37;;;;;;;3.50;1.30;;;;;;;;;;4946539;28;20396;-77
2022/10/10 10:57:19;;;;;;;4.05;1.50;;;;;;;;;;4925871;28;20031;-77
2022/10/10 10:59:44;;;;;;;3.78;1.23;;;;;;;;;;4938068;28;20498;-78
2022/10/10 11:02:16;;;;;;;2.95;1.30;;;;;;;;;;4946454;28;20081;-77
2022/10/10 11:05:00;;;;;;;3.15;1.20;;;;;;;;;;4936939;28;20051;-79
2022/10/10 11:07:29;;;;;;;4.30;1.40;;;;;;;;;;4952670;28;20058;-77
2022/10/10 11:10:16;;;;;;;3.05;1.20;;;;;;;;;;4940391;28;20039;-77
2022/10/10 11:12:59;;;;;;;;;;;;;;;;;;4924227;28;20797;-78
2022/10/10 11:15:26;;;;;;;3.00;1.38;;;;;;;;;;4917365;28;20382;-78
2022/10/10 11:18:10;;;;;;;3.83;1.33;;;;;;;;;;4929665;28;20043;-78
2022/10/10 11:20:47;;;;;;;2.58;1.15;;;;;;;;;;4919082;28;20090;-78
2022/10/10 11:23:39;;;;;;;3.50;1.38;;;;;;;;;;4925480;28;20045;-78
2022/10/10 11:26:19;;;;;;;3.83;1.45;;;;;;;;;;4851563;29;20045;-78
2022/10/10 11:28:59;;;;;;;3.35;1.40;;;;;;;;;;4860021;29;20056;-79
2022/10/10 11:32:05;;;;;;;3.67;1.35;;;;;;;;;;4849799;29;20052;-78
2022/10/10 11:34:40;;;;;;;3.60;1.42;;;;;;;;;;4843782;29;20072;-78
2022/10/10 11:37:12;;;;;;;3.60;1.20;;;;;;;;;;4851021;29;20076;-80
2022/10/10 11:39:56;;;;;;;3.53;1.27;;;;;;;;;;4836035;29;20034;-78
2022/10/10 11:42:24;;;;;;;3.90;1.23;;;;;;;;;;4850964;29;20109;-78
2022/10/10 11:45:00;;;;;;;3.00;1.30;;;;;;;;;;4851868;29;20105;-79
2022/10/10 11:47:39;;;;;;;3.92;1.30;;;;;;;;;;4842589;29;20713;-78
2022/10/10 11:50:11;;;;;;;3.55;1.10;;;;;;;;;;4837495;29;20068;-77
2022/10/10 11:52:46;;;;;;;3.08;1.30;;;;;;;;;;4860031;29;20046;-81
2022/10/10 11:55:22;;;;;;;4.30;1.50;;;;;;;;;;4845757;29;20030;-78
2022/10/10 11:57:54;;;;;;;2.22;1.10;;;;;;;;;;4829015;29;20045;-80
2022/10/10 12:00:19;;;;;;;3.88;1.20;;;;;;;;;;4845024;29;20131;-81
2022/10/10 12:02:46;;;;;;;3.20;1.45;;;;;;;;;;4880832;28;20101;-81
2022/10/10 12:05:26;;;;;;;3.55;1.50;;;;;;;;;;4922351;28;20051;-80
2022/10/10 12:08:05;;;;;;;4.30;1.40;;;;;;;;;;4924532;28;20443;-81
2022/10/10 12:10:41;;;;;;;3.90;1.30;;;;;;;;;;4929397;28;20066;-79
2022/10/10 12:13:31;;;;;;;3.17;1.38;;;;;;;;;;4940388;28;20146;-79
2022/10/10 12:16:01;;;;;;;3.60;1.40;;;;;;;;;;4952347;28;20126;-81
2022/10/10 12:18:53;;;;;;;3.85;1.65;;;;;;;;;;4928878;28;20042;-80
2022/10/10 12:21:24;;;;;;;3.92;1.15;;;;;;;;;;4930572;28;20097;-82
2022/10/10 12:24:03;;;;;;;4.68;1.67;;;;;;;;;;4926496;28;20130;-80
2022/10/10 12:26:54;;;;;;;4.03;1.55;;;;;;;;;;4956963;28;20085;-80
2022/10/10 12:29:38;;;;;;;4.22;1.52;;;;;;;;;;4956735;28;20114;-80
2022/10/10 12:32:23;;;;;;;3.28;1.40;;;;;;;;;;4947361;28;20130;-77
2022/10/10 12:34:49;;;;;;;3.50;1.30;;;;;;;;;;4954969;28;20042;-78
2022/10/10 12:37:26;;;;;;;3.70;1.52;;;;;;;;;;4939315;28;20704;-78
2022/10/10 12:40:17;;;;;;;3.28;1.40;;;;;;;;;;4955684;28;20043;-78
2022/10/10 12:42:45;;;;;;;3.63;1.50;;;;;;;;;;4922555;28;20430;-79
2022/10/10 12:45:29;;;;;;;4.05;1.70;;;;;;;;;;4939558;28;20073;-79
2022/10/10 12:47:56;;;;;;;5.32;1.70;;;;;;;;;;4957425;28;20542;-79
2022/10/10 12:50:25;;;;;;;3.73;1.60;;;;;;;;;;4928913;28;20506;-78
2022/10/10 12:52:56;;;;;;;3.15;1.30;;;;;;;;;;4944120;28;20281;-78
2022/10/10 12:55:28;;;;;;;4.07;1.58;;;;;;;;;;4937517;28;20106;-78
2022/10/10 12:58:06;;;;;;;4.07;1.58;;;;;;;;;;4937301;28;20066;-78
2022/10/10 13:00:38;;;;;;;3.72;1.65;;;;;;;;;;4931096;28;20039;-78
2022/10/10 13:03:11;;;;;;;3.28;1.60;;;;;;;;;;4929363;28;20058;-79
2022/10/10 13:05:39;;;;;;;3.58;1.50;;;;;;;;;;4930196;28;20582;-79
2022/10/10 13:08:14;;;;;;;4.05;1.60;;;;;;;;;;4923809;28;20442;-79
2022/10/10 13:10:39;;;;;;;2.90;1.48;;;;;;;;;;4940380;28;20811;-77
2022/10/10 13:13:12;;;;;;;3.60;1.40;;;;;;;;;;4931840;28;20042;-77
2022/10/10 13:15:42;;;;;;;5.03;1.80;;;;;;;;;;4958477;28;20406;-79
2022/10/10 13:18:07;;;;;;;3.30;1.65;;;;;;;;;;4939340;28;20518;-80
2022/10/10 13:20:39;;;;;;;3.67;1.75;;;;;;;;;;4927926;28;20031;-79
2022/10/10 13:23:09;;;;;;;3.83;1.95;;;;;;;;;;4953044;28;20035;-80
2022/10/10 13:25:37;;;;;;;3.78;1.50;;;;;;;;;;4925803;28;20494;-80
2022/10/10 13:28:03;;;;;;;4.65;1.63;;;;;;;;;;4926490;28;20577;-79
2022/10/10 13:30:28;;;;;;;4.80;1.48;;;;;;;;;;4932298;28;20031;-78
2022/10/10 13:32:55;;;;;;;3.22;1.65;;;;;;;;;;4944100;28;20542;-79
2022/10/10 13:35:25;;;;;;;3.65;1.60;;;;;;;;;;4938321;28;20032;-80
2022/10/10 13:37:56;;;;;;;4.30;1.55;;;;;;;;;;4926694;28;20442;-77
2022/10/10 13:40:22;;;;;;;3.90;1.80;;;;;;;;;;4930910;28;20031;-78
2022/10/10 13:42:48;;;;;;;3.15;1.60;;;;;;;;;;4925455;28;20047;-78
2022/10/10 13:45:29;;;;;;;3.95;1.52;;;;;;;;;;4940505;28;20546;-77
2022/10/10 13:48:09;;;;;;;4.20;1.65;;;;;;;;;;4937297;28;20078;-76
2022/10/10 13:50:52;;;;;;;6.38;1.98;;;;;;;;;;4932093;28;20105;-76
2022/10/10 13:53:27;;;;;;;3.28;1.60;;;;;;;;;;4920840;28;20082;-77
2022/10/10 13:56:08;;;;;;;3.38;1.83;;;;;;;;;;4947666;28;20039;-76
2022/10/10 13:59:00;;;;;;;3.25;1.65;;;;;;;;;;4946675;28;20110;-76
2022/10/10 14:01:37;;;;;;;3.83;1.77;;;;;;;;;;4953376;28;20070;-76
2022/10/10 14:04:12;;;;;;;4.10;1.65;;;;;;;;;;4939003;28;20050;-76
2022/10/10 14:06:38;;;;;;;4.15;1.98;;;;;;;;;;4945424;28;20553;-76
2022/10/10 14:09:12;;;;;;;5.18;1.88;;;;;;;;;;4930336;28;20502;-76
2022/10/10 14:11:39;;;;;;;4.80;1.77;;;;;;;;;;4938801;28;20038;-76
2022/10/10 14:14:08;;;;;;;6.30;1.97;;;;;;;;;;4923894;28;20043;-75
2022/10/10 14:16:33;;;;;;;3.75;1.88;;;;;;;;;;4936276;28;20035;-77
2022/10/10 14:18:58;;;;;;;4.03;1.63;;;;;;;;;;4929971;28;20840;-75
2022/10/10 14:21:24;;;;;;;3.45;1.65;;;;;;;;;;4929110;28;20043;-75
2022/10/10 14:23:50;;;;;;;3.17;1.42;;;;;;;;;;4933788;28;20046;-76
2022/10/10 14:26:17;;;;;;;4.57;1.83;;;;;;;;;;4924201;28;20035;-76
2022/10/10 14:28:43;;;;;;;4.80;1.90;;;;;;;;;;4939853;28;20171;-75
2022/10/10 14:31:08;;;;;;;4.85;1.80;;;;;;;;;;4936665;28;20542;-76
2022/10/10 14:33:33;;;;;;;4.13;1.77;;;;;;;;;;4926960;28;20485;-76
2022/10/10 14:35:59;;;;;;;4.03;1.92;;;;;;;;;;4925835;28;20101;-76
2022/10/10 14:38:25;;;;;;;3.08;1.50;;;;;;;;;;4929002;28;20124;-76
2022/10/10 14:40:51;;;;;;;3.33;1.50;;;;;;;;;;4936435;28;20055;-75
2022/10/10 14:43:19;;;;;;;3.85;1.50;;;;;;;;;;4936416;28;20035;-76
2022/10/10 14:45:44;;;;;;;;;;;;;;;;;;4938677;28;20741;-76
2022/10/10 14:48:10;;;;;;;3.38;1.60;;;;;;;;;;4929738;28;19973;-76
2022/10/10 14:50:40;;;;;;;3.55;1.70;;;;;;;;;;4939293;28;20453;-76
2022/10/10 14:53:06;;;;;;;3.70;1.70;;;;;;;;;;4920464;28;20133;-76
2022/10/10 14:55:31;;;;;;;4.03;1.83;;;;;;;;;;4923319;28;20141;-75
2022/10/10 14:57:56;;;;;;;4.38;1.60;;;;;;;;;;4928788;28;20069;-77
2022/10/10 15:00:24;;;;;;;4.20;2.20;;;;;;;;;;4930346;28;20541;-80